createdAt,value
2018-03-24T00:00:19.440Z,9.90
2018-03-24T00:02:45.620Z,10.70
2018-03-24T00:05:11.824Z,10.00
2018-03-24T00:07:38.035Z,10.40
2018-03-24T00:10:04.992Z,10.27
2018-03-24T00:12:31.191Z,10.00
2018-03-24T00:14:57.392Z,8.20
2018-03-24T00:17:23.599Z,7.47
2018-03-24T00:19:49.775Z,8.30
2018-03-24T00:22:15.995Z,8.03
2018-03-24T00:24:42.170Z,8.13
2018-03-24T00:27:09.087Z,8.00
2018-03-24T00:29:35.310Z,8.60
2018-03-24T00:32:01.482Z,7.97
2018-03-24T00:34:27.702Z,8.00
2018-03-24T00:36:53.904Z,9.00
2018-03-24T00:39:20.082Z,8.10
2018-03-24T00:41:46.292Z,8.50
2018-03-24T00:44:12.476Z,8.03
2018-03-24T00:46:38.676Z,7.67
2018-03-24T00:49:04.856Z,7.37
2018-03-24T00:51:31.083Z,7.00
2018-03-24T00:53:57.264Z,7.03
2018-03-24T00:56:23.484Z,7.83
2018-03-24T00:58:49.707Z,7.57
2018-03-24T01:01:15.909Z,8.13
2018-03-24T01:03:42.106Z,7.97
2018-03-24T01:06:08.315Z,7.83
2018-03-24T01:08:34.507Z,8.37
2018-03-24T01:11:00.723Z,9.30
2018-03-24T01:13:27.643Z,8.67
2018-03-24T01:15:54.618Z,8.93
2018-03-24T01:18:21.524Z,9.33
2018-03-24T01:20:47.702Z,7.83
2018-03-24T01:23:14.635Z,8.70
2018-03-24T01:25:41.554Z,8.90
2018-03-24T01:28:07.759Z,7.97
2018-03-24T01:30:33.963Z,8.13
2018-03-24T01:33:00.920Z,8.80
2018-03-24T01:35:27.107Z,8.47
2018-03-24T01:37:53.323Z,7.90
2018-03-24T01:40:19.495Z,8.53
2018-03-24T01:42:45.669Z,8.17
2018-03-24T01:45:11.887Z,6.83
2018-03-24T01:47:38.056Z,6.47
2018-03-24T01:50:04.271Z,6.23
2018-03-24T01:52:30.438Z,5.43
2018-03-24T01:54:56.637Z,6.10
2018-03-24T01:57:22.812Z,6.00
2018-03-24T01:59:49.055Z,6.40
2018-03-24T02:02:15.242Z,5.80
2018-03-24T02:04:41.448Z,5.10
2018-03-24T02:07:08.400Z,5.70
2018-03-24T02:09:35.311Z,6.40
2018-03-24T02:12:01.556Z,5.53
2018-03-24T02:14:27.731Z,5.90
2018-03-24T02:16:53.927Z,6.13
2018-03-24T02:19:20.164Z,5.87
2018-03-24T02:21:47.100Z,5.47
2018-03-24T02:24:13.349Z,5.90
2018-03-24T02:26:39.514Z,5.97
2018-03-24T02:29:05.706Z,6.10
2018-03-24T02:31:32.671Z,5.53
2018-03-24T02:33:59.579Z,6.10
2018-03-24T02:36:25.787Z,5.20
2018-03-24T02:38:51.987Z,5.77
2018-03-24T02:41:18.910Z,5.60
2018-03-24T02:43:46.075Z,6.40
2018-03-24T02:46:12.248Z,6.10
2018-03-24T02:48:38.430Z,6.00
2018-03-24T02:51:04.627Z,5.97
2018-03-24T02:53:30.802Z,5.83
2018-03-24T02:55:57.156Z,5.50
2018-03-24T02:58:24.055Z,5.63
2018-03-24T03:00:50.217Z,5.80
2018-03-24T03:03:23.482Z,5.60
2018-03-24T03:05:50.140Z,5.73
2018-03-24T03:08:16.376Z,6.37
2018-03-24T03:10:42.575Z,6.00
2018-03-24T03:13:08.777Z,5.67
2018-03-24T03:15:35.772Z,6.60
2018-03-24T03:18:01.955Z,6.10
2018-03-24T03:20:28.856Z,6.13
2018-03-24T03:22:55.050Z,5.93
2018-03-24T03:25:21.222Z,6.20
2018-03-24T03:27:47.476Z,6.17
2018-03-24T03:30:19.764Z,6.50
2018-03-24T03:32:45.980Z,6.30
2018-03-24T03:35:12.223Z,6.10
2018-03-24T03:37:38.397Z,6.57
2018-03-24T03:40:04.583Z,6.50
2018-03-24T03:42:30.800Z,6.57
2018-03-24T03:44:56.967Z,5.77
2018-03-24T03:47:23.914Z,6.90
2018-03-24T03:49:50.844Z,6.67
2018-03-24T03:52:17.006Z,6.43
2018-03-24T03:54:43.933Z,6.27
2018-03-24T03:57:10.111Z,6.70
2018-03-24T03:59:36.318Z,6.87
2018-03-24T04:02:03.304Z,6.80
2018-03-24T04:04:29.479Z,6.10
2018-03-24T04:06:55.672Z,6.17
2018-03-24T04:09:21.849Z,6.07
2018-03-24T04:11:48.055Z,5.67
2018-03-24T04:14:14.291Z,6.00
2018-03-24T04:16:40.484Z,5.60
2018-03-24T04:19:06.692Z,5.97
2018-03-24T04:24:08.271Z,5.90
2018-03-24T04:26:35.225Z,6.40
2018-03-24T04:29:02.135Z,6.40
2018-03-24T04:31:28.407Z,6.50
2018-03-24T04:33:55.322Z,6.07
2018-03-24T04:36:21.491Z,6.37
2018-03-24T04:38:48.463Z,6.03
2018-03-24T04:41:14.638Z,6.97
2018-03-24T04:43:40.813Z,5.73
2018-03-24T04:46:07.751Z,6.10
2018-03-24T04:48:34.664Z,6.10
2018-03-24T04:51:00.916Z,6.07
2018-03-24T04:53:27.082Z,6.47
2018-03-24T04:55:53.999Z,6.27
2018-03-24T04:58:20.211Z,6.67
2018-03-24T05:00:46.390Z,5.93
2018-03-24T05:03:12.602Z,6.17
2018-03-24T05:05:38.798Z,6.50
2018-03-24T05:08:04.991Z,5.80
2018-03-24T05:10:31.942Z,6.20
2018-03-24T05:12:58.860Z,5.60
2018-03-24T05:15:25.047Z,6.17
2018-03-24T05:17:51.263Z,6.60
2018-03-24T05:20:17.432Z,5.77
2018-03-24T05:22:43.644Z,5.93
2018-03-24T05:25:09.804Z,5.50
2018-03-24T05:27:35.958Z,6.27
2018-03-24T05:30:02.194Z,6.23
2018-03-24T05:32:28.377Z,6.50
2018-03-24T05:34:54.555Z,5.80
2018-03-24T05:37:20.790Z,6.00
2018-03-24T05:39:47.715Z,5.93
2018-03-24T05:42:13.879Z,5.57
2018-03-24T05:44:40.341Z,5.87
2018-03-24T05:47:06.526Z,5.87
2018-03-24T05:49:32.694Z,6.30
2018-03-24T05:51:59.633Z,6.10
2018-03-24T05:54:25.793Z,6.30
2018-03-24T05:56:52.012Z,5.63
2018-03-24T05:59:18.951Z,5.63
2018-03-24T06:01:45.880Z,6.23
2018-03-24T06:04:12.076Z,5.97
2018-03-24T06:06:38.307Z,5.70
2018-03-24T06:09:04.588Z,5.80
2018-03-24T06:11:30.799Z,5.97
2018-03-24T06:13:57.040Z,6.23
2018-03-24T06:16:23.351Z,6.37
2018-03-24T06:18:49.543Z,6.23
2018-03-24T06:21:16.595Z,6.27
2018-03-24T06:23:42.786Z,6.00
2018-03-24T06:26:08.964Z,6.23
2018-03-24T06:28:35.908Z,6.33
2018-03-24T06:31:03.666Z,6.23
2018-03-24T06:33:29.875Z,5.97
2018-03-24T06:35:56.122Z,6.37
2018-03-24T06:38:22.301Z,5.97
2018-03-24T06:40:48.472Z,6.40
2018-03-24T06:43:14.721Z,5.97
2018-03-24T06:45:40.912Z,6.77
2018-03-24T06:48:07.095Z,6.17
2018-03-24T06:50:33.296Z,6.50
2018-03-24T06:52:59.484Z,5.90
2018-03-24T06:55:26.462Z,6.37
2018-03-24T06:57:52.643Z,5.73
2018-03-24T07:00:18.856Z,6.00
2018-03-24T07:02:45.058Z,6.43
2018-03-24T07:05:11.228Z,6.37
2018-03-24T07:07:37.428Z,6.40
2018-03-24T07:10:03.675Z,6.20
2018-03-24T07:12:29.911Z,6.30
2018-03-24T07:14:56.075Z,6.10
2018-03-24T07:17:22.243Z,6.60
2018-03-24T07:19:48.431Z,6.23
2018-03-24T07:22:14.630Z,5.80
2018-03-24T07:24:40.812Z,5.50
2018-03-24T07:27:06.984Z,5.90
2018-03-24T07:29:33.181Z,6.43
2018-03-24T07:31:59.343Z,6.80
2018-03-24T07:34:25.533Z,6.30
2018-03-24T07:36:51.767Z,6.27
2018-03-24T07:39:17.946Z,6.20
2018-03-24T07:41:44.106Z,6.30
2018-03-24T07:44:10.324Z,6.60
2018-03-24T07:46:36.489Z,6.07
2018-03-24T07:49:02.748Z,6.37
2018-03-24T07:51:29.686Z,6.30
2018-03-24T07:53:55.867Z,6.00
2018-03-24T07:56:22.088Z,6.53
2018-03-24T07:58:48.260Z,6.77
2018-03-24T08:01:14.498Z,6.23
2018-03-24T08:03:40.675Z,6.37
2018-03-24T08:06:07.636Z,7.03
2018-03-24T08:08:33.801Z,6.47
2018-03-24T08:11:00.032Z,7.43
2018-03-24T08:13:26.200Z,6.77
2018-03-24T08:15:52.370Z,7.30
2018-03-24T08:18:18.782Z,7.50
2018-03-24T08:20:45.686Z,5.93
2018-03-24T08:23:11.862Z,7.27
2018-03-24T08:25:38.791Z,7.57
2018-03-24T08:28:04.972Z,7.97
2018-03-24T08:30:31.644Z,7.10
2018-03-24T08:32:57.904Z,7.40
2018-03-24T08:35:24.112Z,7.37
2018-03-24T08:37:50.296Z,7.37
2018-03-24T08:40:17.302Z,7.80
2018-03-24T08:42:43.546Z,7.27
2018-03-24T08:45:09.783Z,7.57
2018-03-24T08:47:35.954Z,8.17
2018-03-24T08:50:02.148Z,7.40
2018-03-24T08:52:28.388Z,7.73
2018-03-24T08:54:54.563Z,7.73
2018-03-24T08:57:20.730Z,7.23
2018-03-24T08:59:48.898Z,7.73
2018-03-24T09:02:15.059Z,7.33
2018-03-24T09:04:41.240Z,7.47
2018-03-24T09:07:07.542Z,8.00
2018-03-24T09:09:34.471Z,7.30
2018-03-24T09:12:00.664Z,7.50
2018-03-24T09:14:26.893Z,8.00
2018-03-24T09:16:53.057Z,7.93
2018-03-24T09:19:19.240Z,7.77
2018-03-24T09:21:46.212Z,8.00
2018-03-24T09:24:12.371Z,7.40
2018-03-24T09:26:38.546Z,7.77
2018-03-24T09:29:05.516Z,7.70
2018-03-24T09:31:31.699Z,8.57
2018-03-24T09:33:57.901Z,8.43
2018-03-24T09:36:24.116Z,7.43
2018-03-24T09:38:50.296Z,8.00
2018-03-24T09:41:16.471Z,8.43
2018-03-24T09:43:42.683Z,8.37
2018-03-24T09:46:09.586Z,8.50
2018-03-24T09:48:35.775Z,8.90
2018-03-24T09:51:02.731Z,8.60
2018-03-24T09:53:28.912Z,8.43
2018-03-24T09:55:55.104Z,8.73
2018-03-24T09:58:21.272Z,9.03
2018-03-24T10:00:47.471Z,8.23
2018-03-24T10:03:13.659Z,8.17
2018-03-24T10:05:39.829Z,8.23
2018-03-24T10:08:06.067Z,8.20
2018-03-24T10:10:32.235Z,8.50
2018-03-24T10:12:58.410Z,8.90
2018-03-24T10:15:25.384Z,8.27
2018-03-24T10:17:51.556Z,8.03
2018-03-24T10:20:17.730Z,8.77
2018-03-24T10:22:56.987Z,9.30
2018-03-24T10:25:23.146Z,9.00
2018-03-24T10:27:49.624Z,9.17
2018-03-24T10:30:15.819Z,8.80
2018-03-24T10:32:41.985Z,8.50
2018-03-24T10:35:08.210Z,9.40
2018-03-24T10:37:40.457Z,9.37
2018-03-24T10:40:06.683Z,8.67
2018-03-24T10:42:32.851Z,9.87
2018-03-24T10:44:59.093Z,9.13
2018-03-24T10:47:26.030Z,10.07
2018-03-24T10:49:52.199Z,9.83
2018-03-24T10:52:18.416Z,9.70
2018-03-24T10:54:45.359Z,8.77
2018-03-24T10:57:12.275Z,8.50
2018-03-24T10:59:38.495Z,9.07
2018-03-24T11:02:04.689Z,9.87
2018-03-24T11:04:31.603Z,8.90
2018-03-24T11:06:57.817Z,9.10
2018-03-24T11:09:23.991Z,9.57
2018-03-24T11:11:50.206Z,8.03
2018-03-24T11:14:16.480Z,9.63
2018-03-24T11:16:42.671Z,9.50
2018-03-24T11:19:09.596Z,8.97
2018-03-24T11:21:35.799Z,9.67
2018-03-24T11:24:01.973Z,10.67
2018-03-24T11:26:28.185Z,8.30
2018-03-24T11:28:54.397Z,9.33
2018-03-24T11:31:20.586Z,8.87
2018-03-24T11:33:46.846Z,7.90
2018-03-24T11:36:13.774Z,8.97
2018-03-24T11:38:39.950Z,9.13
2018-03-24T11:41:06.156Z,9.10
2018-03-24T11:43:33.059Z,9.47
2018-03-24T11:45:59.287Z,9.47
2018-03-24T11:48:25.500Z,9.97
2018-03-24T11:50:51.679Z,9.30
2018-03-24T11:53:17.888Z,9.50
2018-03-24T11:55:44.135Z,9.13
2018-03-24T11:58:10.328Z,9.30
2018-03-24T12:00:36.512Z,9.53
2018-03-24T12:03:02.732Z,8.53
2018-03-24T12:05:28.956Z,9.70
2018-03-24T12:07:55.159Z,9.27
2018-03-24T12:10:21.319Z,8.73
2018-03-24T12:12:47.539Z,9.43
2018-03-24T12:15:13.719Z,9.47
2018-03-24T12:17:39.884Z,10.10
2018-03-24T12:20:06.082Z,9.20
2018-03-24T12:22:32.298Z,9.13
2018-03-24T12:24:58.539Z,9.73
2018-03-24T12:27:24.709Z,9.30
2018-03-24T12:29:51.622Z,8.63
2018-03-24T12:32:17.819Z,9.73
2018-03-24T12:34:44.094Z,8.87
2018-03-24T12:37:11.012Z,9.53
2018-03-24T12:39:37.170Z,10.23
2018-03-24T12:42:03.411Z,9.67
2018-03-24T12:44:29.579Z,10.20
2018-03-24T12:46:55.767Z,10.37
2018-03-24T12:49:21.992Z,9.80
2018-03-24T12:51:48.199Z,10.17
2018-03-24T12:54:14.367Z,10.13
2018-03-24T12:56:40.600Z,10.20
2018-03-24T12:59:06.774Z,9.67
2018-03-24T13:01:33.011Z,10.47
2018-03-24T13:03:59.186Z,10.20
2018-03-24T13:06:25.355Z,10.73
2018-03-24T13:08:52.332Z,10.10
2018-03-24T13:11:18.499Z,10.57
2018-03-24T13:13:44.645Z,10.23
2018-03-24T13:16:10.832Z,10.70
2018-03-24T13:18:36.995Z,9.37
2018-03-24T13:21:03.275Z,9.83
2018-03-24T13:23:30.197Z,9.73
2018-03-24T13:25:57.098Z,10.07
2018-03-24T13:28:23.299Z,8.97
2018-03-24T13:30:50.211Z,7.77
2018-03-24T13:33:16.367Z,9.63
2018-03-24T13:35:42.668Z,10.10
2018-03-24T13:38:08.860Z,10.37
2018-03-24T13:40:35.815Z,9.57
2018-03-24T13:43:02.020Z,10.23
2018-03-24T13:45:28.199Z,10.33
2018-03-24T13:47:54.422Z,10.33
2018-03-24T13:50:20.580Z,9.90
2018-03-24T13:52:46.758Z,10.57
2018-03-24T13:55:13.717Z,9.63
2018-03-24T13:57:40.763Z,9.60
2018-03-24T14:00:07.694Z,9.87
2018-03-24T14:02:33.862Z,9.53
2018-03-24T14:05:00.055Z,9.50
2018-03-24T14:07:26.239Z,10.13
2018-03-24T14:09:52.487Z,10.10
2018-03-24T14:12:18.732Z,9.90
2018-03-24T14:14:44.927Z,8.13
2018-03-24T14:17:11.095Z,9.03
2018-03-24T14:19:37.325Z,9.53
2018-03-24T14:22:03.502Z,9.53
2018-03-24T14:24:29.662Z,9.23
2018-03-24T14:26:55.912Z,9.57
2018-03-24T14:29:22.074Z,8.63
2018-03-24T14:31:48.251Z,8.60
2018-03-24T14:34:15.240Z,8.70
2018-03-24T14:36:41.424Z,9.10
2018-03-24T14:39:08.370Z,9.70
2018-03-24T14:41:35.322Z,9.77
2018-03-24T14:44:02.239Z,9.43
2018-03-24T14:46:28.403Z,9.37
2018-03-24T14:48:55.435Z,9.37
2018-03-24T14:51:21.615Z,9.37
2018-03-24T14:53:47.778Z,9.97
2018-03-24T14:56:14.010Z,9.30
2018-03-24T14:58:40.211Z,9.37
2018-03-24T15:01:06.423Z,9.60
2018-03-24T15:03:33.376Z,9.47
2018-03-24T15:06:00.304Z,9.83
2018-03-24T15:08:26.491Z,9.97
2018-03-24T15:10:52.738Z,9.90
2018-03-24T15:13:18.912Z,10.90
2018-03-24T15:15:45.818Z,10.53
2018-03-24T15:18:12.060Z,9.40
2018-03-24T15:20:38.231Z,10.00
2018-03-24T15:23:05.160Z,10.07
2018-03-24T15:25:32.153Z,10.07
2018-03-24T15:27:58.336Z,10.37
2018-03-24T15:30:36.731Z,11.33
2018-03-24T15:33:15.191Z,10.67
2018-03-24T15:35:54.826Z,9.87
2018-03-24T15:38:21.730Z,9.93
2018-03-24T15:40:47.919Z,10.20
2018-03-24T15:43:14.135Z,10.97
2018-03-24T15:45:40.318Z,11.37
2018-03-24T15:48:06.566Z,10.60
2018-03-24T15:50:32.746Z,11.13
2018-03-24T15:52:59.646Z,11.00
2018-03-24T15:55:25.881Z,9.87
2018-03-24T15:57:52.062Z,10.40
2018-03-24T16:00:19.075Z,10.67
2018-03-24T16:02:45.258Z,9.43
2018-03-24T16:05:11.444Z,10.20
2018-03-24T16:07:37.696Z,10.23
2018-03-24T16:10:03.904Z,8.73
2018-03-24T16:12:30.145Z,9.27
2018-03-24T16:14:56.324Z,9.77
2018-03-24T16:17:22.517Z,9.77
2018-03-24T16:19:48.723Z,9.77
2018-03-24T16:22:14.893Z,8.87
2018-03-24T16:24:41.104Z,9.03
2018-03-24T16:27:07.274Z,9.40
2018-03-24T16:29:34.222Z,8.87
2018-03-24T16:32:01.153Z,9.93
2018-03-24T16:34:27.328Z,8.60
2018-03-24T16:36:53.538Z,9.97
2018-03-24T16:39:20.534Z,9.37
2018-03-24T16:41:46.739Z,9.17
2018-03-24T16:44:12.911Z,8.67
2018-03-24T16:46:39.076Z,9.77
2018-03-24T16:49:06.032Z,9.83
2018-03-24T16:51:33.019Z,8.40
2018-03-24T16:53:59.223Z,8.93
2018-03-24T16:56:26.180Z,9.03
2018-03-24T16:58:52.745Z,9.47
2018-03-24T17:01:18.960Z,9.93
2018-03-24T17:03:45.123Z,9.07
2018-03-24T17:06:11.326Z,9.03
2018-03-24T17:08:37.491Z,8.77
2018-03-24T17:11:03.738Z,9.57
2018-03-24T17:13:29.929Z,9.50
2018-03-24T17:15:56.111Z,9.13
2018-03-24T17:18:23.903Z,9.10
2018-03-24T17:20:50.816Z,9.63
2018-03-24T17:23:17.027Z,8.37
2018-03-24T17:25:43.256Z,9.03
2018-03-24T17:28:09.430Z,8.50
2018-03-24T17:30:35.607Z,8.47
2018-03-24T17:33:01.788Z,9.03
2018-03-24T17:35:27.972Z,7.97
2018-03-24T17:37:54.406Z,8.03
2018-03-24T17:40:20.580Z,8.57
2018-03-24T17:42:46.747Z,8.30
2018-03-24T17:45:12.940Z,8.10
2018-03-24T17:47:39.154Z,12.87
2018-03-24T17:50:05.351Z,7.93
2018-03-24T17:52:32.251Z,13.53
2018-03-24T17:54:58.435Z,8.47
2018-03-24T17:57:25.415Z,12.67
2018-03-24T17:59:51.605Z,15.20
2018-03-24T18:02:18.531Z,14.00
2018-03-24T18:04:44.734Z,8.37
2018-03-24T18:07:10.914Z,9.10
2018-03-24T18:09:37.075Z,7.57
2018-03-24T18:12:04.048Z,14.50
2018-03-24T18:14:30.326Z,9.00
2018-03-24T18:16:56.527Z,8.13
2018-03-24T18:19:22.975Z,19.13
2018-03-24T18:21:49.301Z,8.23
2018-03-24T18:24:18.380Z,9.37
2018-03-24T18:26:44.587Z,8.50
2018-03-24T18:29:10.780Z,8.67
2018-03-24T18:31:36.978Z,9.17
2018-03-24T18:34:03.158Z,7.87
2018-03-24T18:36:29.374Z,8.03
2018-03-24T18:38:55.555Z,8.60
2018-03-24T18:41:22.564Z,8.17
2018-03-24T18:43:49.490Z,9.57
2018-03-24T18:46:15.678Z,8.60
2018-03-24T18:48:42.647Z,8.30
2018-03-24T18:51:09.563Z,13.67
2018-03-24T18:53:35.758Z,9.07
2018-03-24T18:56:01.969Z,12.00
2018-03-24T18:58:28.134Z,8.60
2018-03-24T19:00:54.321Z,10.37
2018-03-24T19:03:21.275Z,9.33
2018-03-24T19:05:48.187Z,8.83
2018-03-24T19:08:14.426Z,8.90
2018-03-24T19:10:40.605Z,8.43
2018-03-24T19:13:06.822Z,16.93
2018-03-24T19:15:33.739Z,8.70
2018-03-24T19:17:59.924Z,16.83
2018-03-24T19:20:26.126Z,15.93
2018-03-24T19:22:53.105Z,9.07
2018-03-24T19:25:19.279Z,17.33
2018-03-24T19:27:45.450Z,12.10
2018-03-24T19:30:12.416Z,10.07
2018-03-24T19:32:38.598Z,9.93
2018-03-24T19:35:04.967Z,8.53
2018-03-24T19:37:32.049Z,9.27
2018-03-24T19:39:58.936Z,8.63
2018-03-24T19:42:25.151Z,9.20
2018-03-24T19:44:51.336Z,8.20
2018-03-24T19:47:18.251Z,10.83
2018-03-24T19:49:44.484Z,9.23
2018-03-24T19:52:10.652Z,9.17
2018-03-24T19:54:37.591Z,9.20
2018-03-24T19:57:04.564Z,8.63
2018-03-24T19:59:30.731Z,9.80
2018-03-24T20:01:56.910Z,8.87
2018-03-24T20:04:23.950Z,8.80
2018-03-24T20:06:50.143Z,9.83
2018-03-24T20:09:16.344Z,9.87
2018-03-24T20:11:42.527Z,10.00
2018-03-24T20:14:08.736Z,9.70
2018-03-24T20:16:34.961Z,10.37
2018-03-24T20:19:01.113Z,10.83
2018-03-24T20:21:27.288Z,10.53
2018-03-24T20:23:54.247Z,12.33
2018-03-24T20:26:20.427Z,9.83
2018-03-24T20:28:46.802Z,11.67
2018-03-24T20:31:13.726Z,10.93
2018-03-24T20:33:39.918Z,11.70
2018-03-24T20:36:06.149Z,10.57
2018-03-24T20:38:32.344Z,11.27
2018-03-24T20:40:58.562Z,11.23
2018-03-24T20:43:24.752Z,10.70
2018-03-24T20:45:50.958Z,11.47
2018-03-24T20:48:17.906Z,10.97
2018-03-24T20:50:44.879Z,11.93
2018-03-24T20:53:11.096Z,12.47
2018-03-24T20:55:37.280Z,12.17
2018-03-24T20:58:03.550Z,11.67
2018-03-24T21:00:30.470Z,12.83
2018-03-24T21:02:56.674Z,11.97
2018-03-24T21:05:22.902Z,13.30
2018-03-24T21:07:49.149Z,12.70
2018-03-24T21:10:15.387Z,11.87
2018-03-24T21:12:41.607Z,12.27
2018-03-24T21:15:10.729Z,12.67
2018-03-24T21:17:36.899Z,12.07
2018-03-24T21:20:03.160Z,13.47
2018-03-24T21:22:29.339Z,12.77
2018-03-24T21:24:55.560Z,12.93
2018-03-24T21:27:21.768Z,12.20
2018-03-24T21:29:47.959Z,12.87
2018-03-24T21:32:14.934Z,12.97
2018-03-24T21:34:41.100Z,13.07
2018-03-24T21:37:07.260Z,13.90
2018-03-24T21:39:34.235Z,12.10
2018-03-24T21:42:01.168Z,13.93
2018-03-24T21:44:27.373Z,13.37
2018-03-24T21:46:53.538Z,13.00
2018-03-24T21:49:19.767Z,13.13
2018-03-24T21:51:46.730Z,14.17
2018-03-24T21:54:13.672Z,11.67
2018-03-24T21:56:40.595Z,13.33
2018-03-24T21:59:06.811Z,12.30
2018-03-24T22:01:33.018Z,12.57
2018-03-24T22:03:59.196Z,13.13
2018-03-24T22:06:25.437Z,14.00
2018-03-24T22:08:51.607Z,12.97
2018-03-24T22:11:17.780Z,13.93
2018-03-24T22:13:43.992Z,12.57
2018-03-24T22:16:10.164Z,12.43
2018-03-24T22:18:36.383Z,13.07
2018-03-24T22:21:02.590Z,13.87
2018-03-24T22:23:28.780Z,12.93
2018-03-24T22:25:55.690Z,12.73
2018-03-24T22:28:21.884Z,13.53
2018-03-24T22:30:48.055Z,14.33
2018-03-24T22:33:14.228Z,15.07
2018-03-24T22:35:40.429Z,15.40
2018-03-24T22:38:06.611Z,15.27
2018-03-24T22:40:33.538Z,15.80
2018-03-24T22:42:59.833Z,15.23
2018-03-24T22:45:25.966Z,15.73
2018-03-24T22:47:52.146Z,13.30
2018-03-24T22:50:19.086Z,16.33
2018-03-24T22:52:45.287Z,14.23
2018-03-24T22:55:11.487Z,15.77
2018-03-24T22:57:37.658Z,17.13
2018-03-24T23:00:04.679Z,15.97
2018-03-24T23:02:30.911Z,15.20
2018-03-24T23:04:57.079Z,16.97
2018-03-24T23:07:23.255Z,17.13
2018-03-24T23:09:49.510Z,16.83
2018-03-24T23:12:15.692Z,16.57
2018-03-24T23:14:41.861Z,16.47
2018-03-24T23:17:08.055Z,15.77
2018-03-24T23:19:34.242Z,16.77
2018-03-24T23:22:00.430Z,16.40
2018-03-24T23:24:26.627Z,15.10
2018-03-24T23:26:52.791Z,15.13
2018-03-24T23:29:19.021Z,15.60
2018-03-24T23:31:45.202Z,16.27
2018-03-24T23:34:11.366Z,17.23
2018-03-24T23:36:37.617Z,15.67
2018-03-24T23:39:04.739Z,16.20
2018-03-24T23:41:30.922Z,15.27
2018-03-24T23:43:57.873Z,15.73
2018-03-24T23:46:24.799Z,14.27
2018-03-24T23:48:51.025Z,14.63
2018-03-24T23:51:17.194Z,14.57
2018-03-24T23:53:44.121Z,15.00
2018-03-24T23:56:10.359Z,14.77
2018-03-24T23:58:36.524Z,15.30
